Time;durP1;ratioP1;P1;durP2;ratioP2;P2;SDS_P1;SDS_P2;PMS_P1;PMS_P2;Temp;Humidity;BMP_temperature;BMP_pressure;BME280_temperature;BME280_humidity;BME280_pressure;Samples;Min_cycle;Max_cycle;Signal;HPM_P1;HPM_P2
2021/07/03 00:01:19;;;;;;;8.98;5.60;;;16.60;71.20;;;15.44;68.22;96207.56;4980159;28;20085;-64
2021/07/03 00:03:45;;;;;;;7.97;5.93;;;16.60;71.40;;;15.43;68.70;96203.28;4979791;28;20046;-64
2021/07/03 00:06:11;;;;;;;8.25;5.53;;;16.50;71.70;;;15.41;69.36;96200.06;5005528;28;20572;-64
2021/07/03 00:08:37;;;;;;;7.28;5.35;;;16.60;72.00;;;15.39;69.14;96202.06;4994996;28;20065;-64
2021/07/03 00:11:04;;;;;;;7.53;5.10;;;16.50;72.40;;;15.35;69.87;96200.88;4996422;28;20034;-64
2021/07/03 00:13:30;;;;;;;6.63;5.25;;;16.50;72.60;;;15.31;69.51;96193.38;4974339;28;20125;-63
2021/07/03 00:15:57;;;;;;;9.18;5.47;;;16.50;72.70;;;15.30;68.87;96196.25;4990117;28;20189;-64
2021/07/03 00:18:23;;;;;;;8.52;5.32;;;16.50;72.70;;;15.26;69.39;96209.13;4993958;28;20042;-65
2021/07/03 00:20:48;;;;;;;7.50;5.13;;;16.50;72.60;;;15.22;70.41;96199.97;4988715;28;20034;-63
2021/07/03 00:23:14;;;;;;;6.95;5.07;;;16.40;73.00;;;15.21;70.13;96200.19;4991518;28;20034;-64
2021/07/03 00:25:40;;;;;;;6.95;5.78;;;16.40;73.30;;;15.17;69.75;96193.72;4977616;28;20038;-64
2021/07/03 00:28:06;;;;;;;7.65;5.78;;;16.30;73.20;;;15.16;70.82;96190.25;4970765;28;20030;-64
2021/07/03 00:30:31;;;;;;;7.95;5.35;;;16.40;73.20;;;15.15;70.66;96190.44;5000402;28;20518;-64
2021/07/03 00:32:57;;;;;;;7.30;5.53;;;16.40;73.40;;;15.14;70.02;96181.69;4968701;28;20455;-64
2021/07/03 00:35:23;;;;;;;8.73;5.68;;;16.30;73.70;;;15.12;71.19;96182.94;4969116;28;20026;-64
2021/07/03 00:37:49;;;;;;;6.88;5.70;;;16.30;73.80;;;15.06;70.48;96181.97;4990422;28;20073;-64
2021/07/03 00:40:15;;;;;;;7.28;5.38;;;16.20;73.80;;;15.05;70.81;96179.53;4979129;28;20391;-64
2021/07/03 00:42:41;;;;;;;10.02;5.72;;;16.20;74.00;;;14.98;71.16;96174.28;4977644;28;20037;-64
2021/07/03 00:45:08;;;;;;;8.80;5.68;;;16.10;74.10;;;14.94;70.06;96173.91;4978656;28;20505;-65
2021/07/03 00:47:34;;;;;;;9.57;6.03;;;16.10;74.10;;;14.89;71.64;96178.19;4974121;28;20026;-64
2021/07/03 00:50:00;;;;;;;7.18;5.82;;;16.10;74.10;;;14.85;71.30;96175.16;4986574;28;20121;-64
2021/07/03 00:52:26;;;;;;;7.57;5.43;;;16.10;74.20;;;14.82;71.34;96174.78;4992542;28;20117;-65
2021/07/03 00:54:52;;;;;;;7.25;5.55;;;16.10;74.40;;;14.79;71.37;96173.38;4976536;28;20034;-64
2021/07/03 00:57:18;;;;;;;7.95;5.97;;;16.00;74.50;;;14.76;71.81;96171.16;4993190;28;20105;-64
2021/07/03 00:59:46;;;;;;;9.10;6.55;;;15.90;74.80;;;14.74;72.19;96175.06;4999434;28;20118;-64
2021/07/03 01:02:14;;;;;;;8.77;6.10;;;15.90;74.70;;;14.69;72.23;96176.47;4987320;28;20518;-64
2021/07/03 01:04:40;;;;;;;8.18;6.43;;;15.90;74.80;;;14.67;72.74;96175.88;4961960;28;20058;-64
2021/07/03 01:07:07;;;;;;;9.02;5.97;;;15.90;75.00;;;14.62;71.75;96173.06;4973913;28;20121;-64
2021/07/03 01:09:33;;;;;;;7.72;6.00;;;15.80;75.20;;;14.58;72.98;96169.22;4972830;28;20031;-64
2021/07/03 01:11:59;;;;;;;8.23;5.80;;;15.70;75.40;;;14.55;71.82;96180.22;4992048;28;20465;-64
2021/07/03 01:14:24;;;;;;;9.13;6.22;;;15.70;75.40;;;14.48;72.21;96176.78;4964280;28;20160;-64
2021/07/03 01:16:50;;;;;;;8.52;6.15;;;15.60;75.30;;;14.40;72.59;96185.75;4991222;28;20042;-64
2021/07/03 01:19:16;;;;;;;8.15;6.07;;;15.60;75.30;;;14.37;73.23;96190.66;5007614;28;20497;-64
2021/07/03 01:21:50;;;;;;;9.93;6.00;;;15.60;75.50;;;14.35;74.60;96182.13;4978493;28;20081;-64
2021/07/03 01:24:17;;;;;;;11.10;6.40;;;15.50;76.00;;;14.32;72.60;96190.50;5000571;28;20108;-64
2021/07/03 01:26:47;;;;;;;7.30;5.82;;;15.50;76.00;;;14.29;73.77;96189.06;4992485;28;20391;-65
2021/07/03 01:29:13;;;;;;;9.18;5.97;;;15.50;76.10;;;14.26;73.65;96193.97;4968860;28;20049;-64
2021/07/03 01:31:40;;;;;;;6.47;5.78;;;15.40;76.10;;;14.24;73.33;96193.34;4989915;28;20039;-64
2021/07/03 01:34:06;;;;;;;9.98;6.05;;;15.40;76.30;;;14.22;73.23;96190.09;4976337;28;20042;-64
2021/07/03 01:36:32;;;;;;;6.60;5.72;;;15.40;76.30;;;14.19;73.60;96185.25;4993510;28;20065;-64
2021/07/03 01:38:58;;;;;;;9.82;5.72;;;15.40;76.20;;;14.16;73.76;96180.38;4971082;28;20351;-64
2021/07/03 01:41:23;;;;;;;7.60;5.82;;;15.30;76.20;;;14.11;73.35;96181.00;4988584;28;20526;-64
2021/07/03 01:43:49;;;;;;;6.60;5.50;;;15.40;76.30;;;14.09;72.95;96183.84;4973109;28;20072;-64
2021/07/03 01:46:15;;;;;;;9.13;5.70;;;15.30;76.30;;;14.07;73.63;96185.91;4997501;28;20093;-65
2021/07/03 01:48:41;;;;;;;9.65;5.97;;;15.20;76.40;;;14.04;73.06;96180.22;4993822;28;20041;-64
2021/07/03 01:51:06;;;;;;;7.95;6.07;;;15.20;76.50;;;13.99;74.35;96180.81;4962521;28;20058;-64
2021/07/03 01:53:32;;;;;;;9.50;5.40;;;15.20;76.50;;;13.97;73.57;96177.56;4990323;28;20462;-64
2021/07/03 01:55:58;;;;;;;6.72;5.70;;;15.20;76.70;;;13.96;74.15;96175.13;4975422;28;20476;-64
2021/07/03 01:58:25;;;;;;;8.55;6.38;;;15.10;76.90;;;13.93;73.74;96171.09;4976364;28;20109;-64
2021/07/03 02:00:52;;;;;;;7.15;5.85;;;15.10;77.00;;;13.91;73.99;96173.13;4965259;28;20034;-64
2021/07/03 02:03:18;;;;;;;8.43;6.35;;;15.10;77.20;;;13.90;73.93;96176.78;4992017;28;20041;-64
2021/07/03 02:05:44;;;;;;;7.80;6.38;;;15.10;77.20;;;13.89;74.53;96175.16;4990186;28;20464;-64
2021/07/03 02:08:10;;;;;;;8.95;6.15;;;15.10;77.30;;;13.86;74.50;96164.19;4975847;28;20034;-64
2021/07/03 02:10:35;;;;;;;7.75;6.07;;;15.10;77.40;;;13.85;74.29;96171.31;4976898;28;20030;-64
2021/07/03 02:13:01;;;;;;;6.78;5.80;;;15.00;77.40;;;13.82;75.28;96169.09;4982002;28;20530;-64
2021/07/03 02:15:27;;;;;;;10.82;5.88;;;15.10;77.40;;;13.77;75.39;96166.22;4981668;28;20054;-64
2021/07/03 02:17:53;;;;;;;7.50;6.18;;;15.00;77.20;;;13.74;74.86;96158.72;4975514;28;20034;-65
2021/07/03 02:20:18;;;;;;;8.23;6.20;;;15.00;77.50;;;13.72;75.48;96166.03;5006972;28;20065;-64
2021/07/03 02:22:44;;;;;;;10.40;6.18;;;15.00;77.50;;;13.70;75.49;96168.09;4997323;28;20109;-64
2021/07/03 02:25:10;;;;;;;8.23;6.22;;;15.00;77.60;;;13.67;75.60;96160.56;4998228;28;20049;-64
2021/07/03 02:27:36;;;;;;;9.65;6.22;;;14.90;77.50;;;13.67;75.01;96160.56;4968617;28;20038;-64
2021/07/03 02:30:08;;;;;;;9.18;6.00;;;14.90;77.50;;;13.65;75.76;96157.31;4992555;28;20044;-64
2021/07/03 02:32:34;;;;;;;6.60;5.80;;;14.90;77.50;;;13.62;75.02;96163.84;4996160;28;20469;-64
2021/07/03 02:35:00;;;;;;;9.40;6.15;;;14.90;77.30;;;13.60;74.91;96157.94;4997324;28;20540;-64
2021/07/03 02:37:26;;;;;;;8.55;5.57;;;14.80;77.30;;;13.55;74.64;96163.03;4978888;28;20034;-64
2021/07/03 02:39:52;;;;;;;7.40;6.50;;;14.80;77.40;;;13.53;75.52;96167.69;4999269;28;20510;-64
2021/07/03 02:42:17;;;;;;;7.72;6.22;;;14.80;77.40;;;13.51;75.10;96167.09;4992109;28;20053;-64
2021/07/03 02:44:43;;;;;;;9.88;6.32;;;14.70;77.50;;;13.50;75.15;96170.75;4996173;28;20550;-64
2021/07/03 02:47:09;;;;;;;6.38;5.22;;;14.70;77.50;;;13.48;74.66;96178.88;4967749;28;20410;-64
2021/07/03 02:49:34;;;;;;;8.80;6.80;;;14.70;77.40;;;13.46;75.53;96180.13;4972025;28;20041;-64
2021/07/03 02:52:00;;;;;;;10.27;6.30;;;14.60;77.40;;;13.44;75.56;96161.81;4972879;28;20030;-64
2021/07/03 02:54:26;;;;;;;8.43;6.35;;;14.60;77.40;;;13.40;75.42;96173.81;4989407;28;20062;-64
2021/07/03 02:56:57;;;;;;;8.38;5.85;;;14.60;77.30;;;13.36;74.81;96179.72;4994609;28;20042;-64
2021/07/03 02:59:24;;;;;;;;;;;14.60;77.30;;;13.32;75.92;96179.31;4990948;28;20049;-64
2021/07/03 03:01:49;;;;;;;8.52;6.32;;;14.60;77.40;;;13.29;75.22;96177.06;4997519;28;19917;-64
2021/07/03 03:04:15;;;;;;;7.97;6.20;;;14.60;77.40;;;13.27;75.06;96184.38;4994227;28;20081;-64
2021/07/03 03:06:41;;;;;;;9.50;6.55;;;14.60;77.30;;;13.26;75.51;96181.94;4962753;28;20532;-63
2021/07/03 03:09:07;;;;;;;10.35;6.60;;;14.50;77.40;;;13.23;75.67;96180.53;4962588;28;20031;-63
2021/07/03 03:11:32;;;;;;;7.45;6.18;;;14.50;77.40;;;13.18;75.46;96183.78;4991942;28;20061;-63
2021/07/03 03:13:58;;;;;;;8.63;6.70;;;14.40;77.50;;;13.18;75.59;96182.97;4978248;28;20031;-63
2021/07/03 03:16:25;;;;;;;7.72;6.38;;;14.40;77.70;;;13.15;75.01;96186.00;4979092;28;20052;-63
2021/07/03 03:18:51;;;;;;;9.30;6.32;;;14.40;77.60;;;13.12;75.71;96181.91;4997735;28;20041;-63
2021/07/03 03:21:17;;;;;;;7.13;5.47;;;14.40;77.70;;;13.10;75.92;96183.94;4998798;28;20062;-63
2021/07/03 03:23:43;;;;;;;7.18;5.40;;;14.30;77.60;;;13.08;75.76;96183.34;4994648;28;20546;-64
2021/07/03 03:26:09;;;;;;;7.63;5.60;;;14.30;77.40;;;13.05;75.81;96189.03;4994038;28;20417;-63
2021/07/03 03:28:34;;;;;;;8.10;6.30;;;14.30;77.30;;;13.03;75.65;96185.78;4981021;28;20163;-64
2021/07/03 03:31:00;;;;;;;6.90;5.93;;;14.30;77.20;;;13.02;75.80;96186.78;4987945;28;20035;-63
2021/07/03 03:33:26;;;;;;;10.57;5.45;;;14.20;77.40;;;13.00;76.21;96185.38;5009868;28;20065;-63
2021/07/03 03:35:51;;;;;;;7.65;5.72;;;14.30;77.50;;;12.98;75.99;96182.13;4998876;28;20038;-64
2021/07/03 03:38:17;;;;;;;8.20;5.47;;;14.20;77.50;;;12.99;75.40;96194.31;4994532;28;20563;-64
2021/07/03 03:40:43;;;;;;;9.77;5.88;;;14.30;77.70;;;12.99;75.87;96189.03;4990613;28;20035;-63
2021/07/03 03:43:10;;;;;;;8.50;5.80;;;14.20;77.90;;;12.98;75.69;96187.41;4980868;28;20453;-65
2021/07/03 03:45:36;;;;;;;7.88;5.00;;;14.30;77.90;;;12.99;76.14;96191.66;4971919;28;20038;-64
2021/07/03 03:48:02;;;;;;;8.38;5.50;;;14.30;77.60;;;12.98;75.46;96184.75;4979248;28;20398;-64
2021/07/03 03:50:28;;;;;;;7.88;5.75;;;14.30;77.60;;;12.97;75.89;96185.78;5003210;28;20121;-64
2021/07/03 03:52:54;;;;;;;8.13;5.85;;;14.20;77.70;;;12.96;75.91;96189.44;5000537;28;20054;-64
2021/07/03 03:55:20;;;;;;;9.43;5.85;;;14.20;77.70;;;12.97;75.55;96196.34;4991582;28;20041;-64
2021/07/03 03:57:46;;;;;;;7.45;6.28;;;14.20;77.90;;;12.95;76.00;96195.72;4993946;28;20033;-64
2021/07/03 04:00:12;;;;;;;8.73;6.53;;;14.20;78.10;;;12.96;76.33;96195.53;4989138;28;20455;-64
2021/07/03 04:02:38;;;;;;;8.20;6.10;;;14.30;78.10;;;12.97;75.93;96185.78;4988907;28;20062;-65
2021/07/03 04:05:05;;;;;;;7.55;6.15;;;14.30;78.00;;;13.00;76.34;96190.66;4978189;28;20030;-64
2021/07/03 04:07:31;;;;;;;6.45;5.10;;;14.30;78.20;;;13.02;76.02;96193.91;4969610;28;20029;-64
2021/07/03 04:09:56;;;;;;;7.18;5.57;;;14.40;78.20;;;13.05;76.96;96178.47;4974493;28;20038;-64
2021/07/03 04:12:24;;;;;;;7.68;5.75;;;14.40;78.30;;;13.08;76.77;96177.25;4988923;28;20042;-64
2021/07/03 04:14:49;;;;;;;6.30;5.40;;;14.50;78.40;;;13.12;76.64;96183.72;4993276;28;20044;-64
2021/07/03 04:17:15;;;;;;;8.20;5.40;;;14.60;78.40;;;13.15;77.25;96183.34;4959694;28;20038;-69
2021/07/03 04:19:41;;;;;;;7.53;5.95;;;14.60;78.60;;;13.18;77.38;96186.44;5006341;28;20048;-67
2021/07/03 04:22:07;;;;;;;8.13;5.80;;;14.60;78.80;;;13.23;76.64;96185.00;5002634;28;20052;-68
2021/07/03 04:24:33;;;;;;;7.35;5.78;;;14.70;78.90;;;13.28;77.79;96186.00;4979120;28;20050;-68
2021/07/03 04:26:58;;;;;;;6.68;5.78;;;14.80;78.90;;;13.31;77.11;96182.97;4979593;28;20037;-65
2021/07/03 04:29:24;;;;;;;8.07;5.68;;;14.80;78.90;;;13.33;77.60;96183.56;4978718;28;20113;-66
2021/07/03 04:31:50;;;;;;;7.55;6.22;;;14.80;79.20;;;13.38;77.67;96189.06;5001946;28;20054;-66
2021/07/03 04:34:16;;;;;;;9.57;6.72;;;14.80;79.10;;;13.41;77.11;96195.78;4992828;28;20033;-67
2021/07/03 04:36:41;;;;;;;9.73;6.68;;;14.90;79.00;;;13.44;78.12;96201.47;5009422;28;20458;-67
2021/07/03 04:39:07;;;;;;;8.48;6.80;;;14.90;78.60;;;13.49;77.24;96196.38;5007551;28;20117;-66
2021/07/03 04:41:33;;;;;;;9.85;6.90;;;15.00;78.50;;;13.55;77.10;96188.63;4998613;28;20116;-66
2021/07/03 04:43:59;;;;;;;10.00;7.75;;;15.10;78.40;;;13.59;76.83;96192.53;4973878;28;20039;-66
2021/07/03 04:46:24;;;;;;;13.35;7.90;;;15.10;78.10;;;13.63;77.12;96181.31;4953632;28;20129;-66
2021/07/03 04:48:50;;;;;;;10.82;7.45;;;15.10;78.10;;;13.68;77.39;96188.63;4986095;28;20086;-66
2021/07/03 04:51:16;;;;;;;14.07;7.65;;;15.20;78.30;;;13.75;77.69;96181.50;5000427;28;20050;-66
2021/07/03 04:53:41;;;;;;;13.38;8.98;;;15.30;78.20;;;13.80;77.27;96181.69;4966550;28;20518;-66
2021/07/03 04:56:07;;;;;;;9.55;8.07;;;15.30;78.20;;;13.86;77.52;96180.06;4989053;28;20034;-65
2021/07/03 04:58:33;;;;;;;10.63;8.77;;;15.40;78.50;;;13.92;77.30;96177.38;4960609;28;20125;-66
2021/07/03 05:00:59;;;;;;;12.10;8.52;;;15.40;78.20;;;13.96;77.61;96180.44;4994248;28;20112;-66
2021/07/03 05:03:24;;;;;;;10.50;8.57;;;15.50;78.10;;;14.00;76.80;96171.88;4976942;28;20524;-66
2021/07/03 05:05:50;;;;;;;15.50;9.00;;;15.60;77.10;;;14.05;77.64;96174.72;4969690;28;20066;-66
2021/07/03 05:08:16;;;;;;;12.82;8.65;;;15.60;77.40;;;14.10;76.83;96172.25;5000160;28;20049;-65
2021/07/03 05:10:41;;;;;;;9.98;8.15;;;15.70;77.60;;;14.16;76.71;96167.16;4968417;28;20026;-65
2021/07/03 05:13:07;;;;;;;12.52;9.02;;;15.70;77.40;;;14.20;78.21;96169.16;4979383;28;20041;-66
2021/07/03 05:15:33;;;;;;;11.43;8.88;;;15.80;77.10;;;14.25;76.85;96165.88;4985240;28;20031;-66
2021/07/03 05:18:01;;;;;;;9.80;8.60;;;15.80;76.30;;;14.29;75.44;96164.44;4954142;28;20039;-66
2021/07/03 05:20:27;;;;;;;11.07;8.77;;;15.90;75.10;;;14.33;76.03;96177.06;4963984;28;20446;-66
2021/07/03 05:22:52;;;;;;;11.45;9.63;;;15.90;75.10;;;14.36;76.03;96171.34;4991953;28;20422;-65
2021/07/03 05:25:18;;;;;;;14.52;8.98;;;15.90;75.10;;;14.40;75.86;96161.94;4995551;28;20038;-66
2021/07/03 05:27:44;;;;;;;11.38;8.57;;;15.90;75.20;;;14.44;74.73;96162.34;5020324;28;20257;-66
2021/07/03 05:30:10;;;;;;;10.80;8.73;;;15.90;75.40;;;14.44;74.80;96164.19;4992797;28;20088;-66
2021/07/03 05:32:36;;;;;;;12.25;9.20;;;15.80;75.90;;;14.47;75.99;96172.53;4988859;28;20038;-66
2021/07/03 05:35:02;;;;;;;12.52;9.07;;;16.00;75.90;;;14.49;75.08;96167.84;4973534;28;20030;-66
2021/07/03 05:37:28;;;;;;;11.40;8.48;;;16.00;76.30;;;14.56;76.86;96171.28;4989243;28;20359;-66
2021/07/03 05:39:54;;;;;;;9.43;8.07;;;16.10;76.30;;;14.61;75.36;96171.44;4972868;28;20109;-66
2021/07/03 05:42:19;;;;;;;12.27;8.10;;;16.30;76.30;;;14.70;75.65;96178.09;4973393;28;20038;-66
2021/07/03 05:44:45;;;;;;;11.73;9.18;;;16.40;76.20;;;14.81;76.80;96178.47;4972758;28;20037;-66
2021/07/03 05:47:11;;;;;;;11.00;8.90;;;16.60;75.00;;;14.90;76.34;96185.13;4988887;28;20055;-66
2021/07/03 05:49:36;;;;;;;12.00;9.52;;;16.70;75.20;;;15.04;76.28;96188.50;4972748;28;20034;-66
2021/07/03 05:52:03;;;;;;;14.20;10.82;;;17.00;74.60;;;15.17;75.56;96191.88;4972516;28;20034;-66
2021/07/03 05:54:31;;;;;;;15.50;11.20;;;17.30;72.40;;;15.31;76.00;96196.03;4992062;28;20112;-66
2021/07/03 05:56:57;;;;;;;13.80;9.27;;;17.50;71.80;;;15.48;75.02;96190.19;4968866;28;20502;-66
2021/07/03 05:59:22;;;;;;;12.23;8.57;;;17.70;68.90;;;15.58;73.86;96187.84;4983105;28;20027;-68
2021/07/03 06:01:48;;;;;;;12.57;9.25;;;17.80;69.10;;;15.74;74.44;96184.69;4973600;28;20057;-68
2021/07/03 06:04:14;;;;;;;12.48;9.60;;;18.10;68.00;;;15.91;73.89;96185.72;4988994;28;20035;-68
2021/07/03 06:06:39;;;;;;;12.50;8.75;;;18.40;67.90;;;16.09;72.38;96192.09;4984285;28;20042;-66
2021/07/03 06:09:05;;;;;;;9.30;8.20;;;18.60;66.80;;;16.27;72.91;96189.41;4972436;28;20033;-70
2021/07/03 06:11:31;;;;;;;10.95;7.63;;;18.80;67.60;;;16.44;72.17;96186.97;4989246;28;20073;-70
2021/07/03 06:13:57;;;;;;;11.85;8.52;;;18.80;66.00;;;16.59;72.56;96192.69;4972224;28;20501;-69
2021/07/03 06:16:23;;;;;;;12.35;7.45;;;19.10;66.00;;;16.74;72.09;96184.34;4972538;28;20136;-69
2021/07/03 06:18:49;;;;;;;8.98;8.00;;;19.20;65.50;;;16.90;71.20;96182.91;4956417;28;20364;-70
2021/07/03 06:21:14;;;;;;;11.35;7.43;;;19.30;65.20;;;17.05;70.27;96186.78;4958489;28;20100;-71
2021/07/03 06:23:40;;;;;;;9.40;7.75;;;19.60;63.50;;;17.15;69.65;96168.41;4977435;28;20038;-73
2021/07/03 06:26:06;;;;;;;12.23;8.75;;;19.80;63.00;;;17.39;69.57;96165.78;4982409;28;20038;-69
2021/07/03 06:28:32;;;;;;;28.00;21.23;;;20.00;61.10;;;17.57;68.56;96168.34;4976299;28;20037;-70
2021/07/03 06:30:58;;;;;;;11.90;9.80;;;20.20;61.50;;;17.74;68.27;96169.31;4963698;28;20222;-70
2021/07/03 06:33:24;;;;;;;8.90;6.85;;;20.40;60.20;;;17.91;68.44;96169.44;4952670;28;20034;-70
2021/07/03 06:35:50;;;;;;;18.15;13.55;;;20.80;59.20;;;18.14;68.06;96162.44;4967495;28;20076;-71
2021/07/03 06:38:16;;;;;;;14.07;11.02;;;21.40;58.70;;;18.37;67.48;96162.41;4993920;28;20499;-72
2021/07/03 06:40:42;;;;;;;10.07;6.93;;;21.50;56.10;;;18.57;65.54;96151.31;4964870;28;20045;-72
2021/07/03 06:43:08;;;;;;;18.00;15.10;;;21.50;54.60;;;18.80;65.53;96156.59;4972582;28;20027;-72
2021/07/03 06:45:33;;;;;;;9.55;7.53;;;21.80;55.20;;;19.06;64.93;96151.69;4979171;28;20033;-72
2021/07/03 06:47:59;;;;;;;6.75;5.88;;;22.10;54.40;;;19.28;63.34;96160.59;4980686;28;20046;-72
2021/07/03 06:50:25;;;;;;;9.60;7.70;;;22.10;53.00;;;19.49;62.82;96159.88;4989581;28;20188;-71
2021/07/03 06:52:51;;;;;;;8.85;7.25;;;22.40;53.20;;;19.71;63.21;96161.84;4957590;28;20048;-69
2021/07/03 06:55:16;;;;;;;7.60;5.97;;;22.60;54.00;;;19.96;63.58;96154.19;4987768;28;20060;-71
2021/07/03 06:57:42;;;;;;;12.20;7.95;;;22.90;54.10;;;20.23;62.53;96156.13;5000235;28;20026;-65
2021/07/03 07:00:09;;;;;;;7.88;5.95;;;23.30;52.50;;;20.53;63.27;96159.19;4971064;28;20046;-65
2021/07/03 07:02:34;;;;;;;11.45;9.07;;;23.60;52.70;;;20.82;61.73;96165.13;5006891;28;20030;-64
2021/07/03 07:05:00;;;;;;;14.25;10.60;;;23.80;50.70;;;21.06;61.60;96161.09;4977955;28;20457;-64
2021/07/03 07:07:26;;;;;;;9.32;7.32;;;24.20;50.10;;;21.31;60.52;96159.72;4964965;28;20030;-64
2021/07/03 07:09:52;;;;;;;6.25;5.25;;;24.40;49.20;;;21.51;58.73;96151.06;4994679;28;20494;-65
2021/07/03 07:12:17;;;;;;;8.90;6.35;;;24.30;46.10;;;21.70;58.29;96147.69;4978960;28;20041;-64
2021/07/03 07:14:43;;;;;;;9.70;5.68;;;24.60;46.30;;;21.91;57.68;96156.66;5000441;28;20482;-64
2021/07/03 07:17:10;;;;;;;8.00;5.50;;;24.80;46.20;;;22.06;56.86;96149.81;5011213;28;20030;-65
2021/07/03 07:19:36;;;;;;;6.55;5.40;;;24.80;44.80;;;22.20;55.60;96156.31;4982873;28;20030;-65
2021/07/03 07:22:03;;;;;;;8.25;5.60;;;24.80;44.10;;;22.36;54.99;96152.63;4979393;28;20066;-68
2021/07/03 07:24:28;;;;;;;8.48;6.40;;;25.10;44.40;;;22.50;54.33;96145.72;5007303;28;20493;-67
2021/07/03 07:26:54;;;;;;;13.77;8.48;;;25.10;42.70;;;22.64;54.32;96142.56;5009794;28;20038;-67
2021/07/03 07:29:20;;;;;;;13.23;7.75;;;25.40;45.50;;;22.78;54.61;96133.72;4976471;28;20026;-69
2021/07/03 07:31:47;;;;;;;15.70;8.10;;;25.60;43.50;;;22.93;54.02;96138.34;5009038;28;20080;-68
2021/07/03 07:34:13;;;;;;;8.60;6.18;;;25.80;44.60;;;23.13;54.17;96138.38;5003158;28;20530;-69
2021/07/03 07:36:39;;;;;;;11.48;7.28;;;26.10;43.10;;;23.36;53.59;96136.25;4993232;28;20030;-69
2021/07/03 07:39:05;;;;;;;16.83;9.48;;;26.50;43.80;;;23.60;53.10;96126.59;5020316;28;20057;-67
2021/07/03 07:41:31;;;;;;;32.97;18.13;;;26.80;41.50;;;23.89;53.25;96120.63;5022010;28;20039;-67
2021/07/03 07:43:57;;;;;;;15.77;6.50;;;27.20;42.10;;;24.23;52.20;96120.78;4980884;28;20405;-69
2021/07/03 07:46:22;;;;;;;25.83;19.63;;;27.50;40.80;;;24.53;51.06;96128.75;4978766;28;20037;-68
2021/07/03 07:48:48;;;;;;;16.08;12.88;;;27.70;38.40;;;24.79;50.13;96126.72;4959868;28;20099;-68
2021/07/03 07:51:14;;;;;;;7.22;5.70;;;28.00;38.20;;;25.11;50.60;96117.38;4992423;28;20035;-66
2021/07/03 07:53:40;;;;;;;6.53;4.97;;;28.30;39.80;;;25.37;49.48;96116.13;5005333;28;20437;-67
2021/07/03 07:56:05;;;;;;;10.15;5.40;;;28.40;38.30;;;25.60;48.05;96106.47;4963429;28;20122;-68
2021/07/03 07:58:31;;;;;;;6.07;5.00;;;28.70;35.80;;;25.88;47.11;96108.38;5005086;28;20034;-68
2021/07/03 08:00:57;;;;;;;14.82;6.13;;;29.00;35.10;;;26.14;46.61;96098.09;4970696;28;20085;-68
2021/07/03 08:03:22;;;;;;;11.40;5.05;;;29.30;34.90;;;26.31;45.78;96097.63;4993568;28;20081;-69
2021/07/03 08:05:48;;;;;;;7.47;4.80;;;29.40;34.40;;;26.46;44.99;96088.56;5009341;28;20117;-68
2021/07/03 08:08:14;;;;;;;7.43;4.55;;;29.30;34.70;;;26.53;43.95;96095.22;5001363;28;20038;-69
2021/07/03 08:10:41;;;;;;;8.80;5.28;;;29.30;33.30;;;26.63;43.33;96098.88;4993190;28;20049;-69
2021/07/03 08:13:07;;;;;;;9.35;4.45;;;29.30;34.90;;;26.79;42.90;96100.25;4970763;28;20046;-69
2021/07/03 08:15:32;;;;;;;14.70;12.23;;;29.60;32.50;;;26.87;42.05;96094.19;4974477;28;20073;-69
2021/07/03 08:17:59;;;;;;;17.58;13.82;;;29.70;32.40;;;26.95;42.27;96098.94;4980553;28;20040;-71
2021/07/03 08:20:25;;;;;;;10.35;7.57;;;29.70;32.10;;;27.07;42.06;96096.63;4972570;28;20125;-71
2021/07/03 08:22:51;;;;;;;6.95;4.30;;;29.90;33.60;;;27.21;40.91;96096.69;4979569;28;20391;-67
2021/07/03 08:25:18;;;;;;;25.30;12.07;;;30.00;31.30;;;27.38;41.52;96099.63;4995844;28;20030;-67
2021/07/03 08:27:44;;;;;;;16.90;7.43;;;30.30;34.20;;;27.63;40.90;96092.22;4994853;28;20037;-67
2021/07/03 08:30:11;;;;;;;6.53;4.35;;;30.50;32.10;;;27.86;40.48;96082.34;4964801;28;20083;-67
2021/07/03 08:32:37;;;;;;;25.83;10.98;;;30.80;30.60;;;28.04;39.97;96079.53;4994784;28;20031;-67
2021/07/03 08:35:04;;;;;;;35.30;16.20;;;31.00;31.50;;;28.26;39.68;96086.97;4990731;28;20176;-67
2021/07/03 08:37:29;;;;;;;31.45;12.63;;;31.00;32.30;;;28.34;39.47;96078.16;4996991;28;20040;-67
2021/07/03 08:39:55;;;;;;;9.32;4.97;;;31.10;30.20;;;28.47;38.03;96071.09;4991475;28;20519;-67
2021/07/03 08:42:21;;;;;;;9.15;8.15;;;31.10;29.70;;;28.59;37.78;96071.41;4978472;28;20070;-67
2021/07/03 08:44:48;;;;;;;23.38;20.83;;;31.20;29.80;;;28.63;37.19;96068.88;4972092;28;20030;-67
2021/07/03 08:47:15;;;;;;;21.88;18.55;;;31.30;29.80;;;28.74;36.88;96064.81;5004684;28;20030;-67
2021/07/03 08:49:41;;;;;;;9.85;4.82;;;31.40;30.20;;;28.89;37.30;96058.28;4976749;28;20038;-67
2021/07/03 08:52:07;;;;;;;5.60;4.03;;;31.50;30.40;;;28.99;37.02;96059.97;5007483;28;20029;-68
2021/07/03 08:54:33;;;;;;;7.13;4.13;;;31.50;30.20;;;29.03;36.34;96067.19;4974916;28;20065;-67
2021/07/03 08:57:00;;;;;;;6.30;3.67;;;31.70;29.00;;;29.05;36.05;96062.25;5002712;28;20046;-67
2021/07/03 08:59:26;;;;;;;4.65;3.80;;;31.80;28.40;;;29.04;35.93;96055.25;4994982;28;20038;-67
2021/07/03 09:01:57;;;;;;;5.88;3.85;;;31.90;28.30;;;29.08;33.92;96058.13;5002199;28;20034;-67
2021/07/03 09:04:40;;;;;;;5.07;4.00;;;32.00;28.40;;;29.16;33.20;96071.72;4994669;28;20122;-67
2021/07/03 09:07:19;;;;;;;5.53;3.80;;;31.80;28.10;;;29.16;33.68;96062.78;4986622;28;20061;-69
2021/07/03 09:09:52;;;;;;;5.47;4.45;;;31.80;28.90;;;29.10;33.19;96062.13;4982543;28;20120;-67
2021/07/03 09:12:32;;;;;;;4.90;3.30;;;31.80;28.30;;;29.08;33.88;96058.91;4974529;28;20062;-70
2021/07/03 09:15:15;;;;;;;4.15;3.20;;;31.90;28.80;;;29.11;31.71;96057.50;4956178;28;20549;-69
2021/07/03 09:17:55;;;;;;;4.53;3.40;;;32.00;26.40;;;29.15;31.06;96062.00;4979504;28;20042;-69
2021/07/03 09:20:26;;;;;;;4.95;3.50;;;32.10;25.70;;;29.05;31.54;96062.25;4953406;28;20089;-68
2021/07/03 09:23:05;;;;;;;3.90;3.35;;;31.80;26.00;;;29.07;31.67;96051.09;4967192;28;20300;-66
2021/07/03 09:25:31;;;;;;;4.57;2.97;;;31.60;27.20;;;29.08;33.82;96053.50;4989483;28;20017;-66
2021/07/03 09:28:02;;;;;;;4.10;3.05;;;31.90;27.00;;;29.12;33.36;96048.28;4967692;28;20763;-65
2021/07/03 09:30:28;;;;;;;4.80;3.40;;;32.00;26.20;;;29.20;33.93;96051.06;4956128;28;20034;-66
2021/07/03 09:32:54;;;;;;;9.38;6.28;;;32.10;28.10;;;29.28;33.31;96053.00;4969591;28;20190;-70
2021/07/03 09:35:20;;;;;;;7.15;5.72;;;32.20;27.20;;;29.36;33.33;96054.16;4940449;28;20043;-70
2021/07/03 09:37:47;;;;;;;15.15;13.50;;;32.10;26.90;;;29.46;33.74;96047.72;4962777;28;20039;-68
2021/07/03 09:40:13;;;;;;;5.45;4.05;;;32.40;29.10;;;29.49;33.93;96042.47;4982651;28;20042;-67
2021/07/03 09:42:40;;;;;;;5.40;3.60;;;32.30;27.60;;;29.48;33.79;96035.47;4959268;28;20038;-67
2021/07/03 09:45:06;;;;;;;4.50;3.38;;;32.40;27.90;;;29.51;33.52;96039.47;4982676;28;20033;-67
2021/07/03 09:47:34;;;;;;;5.30;3.47;;;32.30;26.80;;;29.53;33.54;96037.22;4973072;28;20169;-66
2021/07/03 09:50:12;;;;;;;5.07;3.42;;;32.40;28.90;;;29.61;32.40;96041.88;4973487;28;20050;-67
2021/07/03 09:52:38;;;;;;;5.90;3.55;;;32.30;28.50;;;29.58;33.51;96039.81;4990108;28;20460;-67
2021/07/03 09:55:09;;;;;;;5.13;3.40;;;32.50;27.60;;;29.65;33.05;96044.78;4954716;28;20035;-69
2021/07/03 09:57:39;;;;;;;4.20;3.53;;;32.50;28.30;;;29.69;32.21;96041.16;4973063;28;20051;-70
2021/07/03 10:00:09;;;;;;;4.93;3.67;;;32.60;27.00;;;29.78;31.88;96038.47;4972144;28;20050;-67
2021/07/03 10:02:34;;;;;;;5.78;3.60;;;32.80;26.00;;;30.03;33.02;96045.09;4993444;28;20026;-67
2021/07/03 10:05:00;;;;;;;10.02;8.20;;;33.60;26.90;;;30.30;33.32;96044.88;4971821;28;20532;-67
2021/07/03 10:07:48;;;;;;;11.23;9.90;;;33.60;26.30;;;30.63;32.36;96036.34;4975519;28;20034;-67
2021/07/03 10:10:19;;;;;;;11.85;8.93;;;34.20;26.80;;;31.02;31.47;96028.03;4988290;28;20498;-67
2021/07/03 10:12:55;;;;;;;6.07;4.40;;;34.70;25.80;;;31.47;30.18;96026.84;4982114;28;20069;-68
2021/07/03 10:15:31;;;;;;;4.45;3.33;;;35.00;25.30;;;31.80;29.60;96025.16;4977444;28;20026;-70